sensor_id;sensor_type;location;lat;lon;timestamp;temperature;humidity
43884;DHT22;71973;52.018;5.810;2024-02-04T00:01:41;21.70;51.10
43884;DHT22;71973;52.018;5.810;2024-02-04T00:04:07;21.60;51.10
43884;DHT22;71973;52.018;5.810;2024-02-04T00:06:32;21.50;51.30
43884;DHT22;71973;52.018;5.810;2024-02-04T00:08:58;21.40;51.40
43884;DHT22;71973;52.018;5.810;2024-02-04T00:11:23;21.50;51.50
43884;DHT22;71973;52.018;5.810;2024-02-04T00:13:49;21.40;51.60
43884;DHT22;71973;52.018;5.810;2024-02-04T00:16:14;21.30;51.70
43884;DHT22;71973;52.018;5.810;2024-02-04T00:18:40;21.20;51.80
43884;DHT22;71973;52.018;5.810;2024-02-04T00:21:05;21.20;51.90
43884;DHT22;71973;52.018;5.810;2024-02-04T00:23:31;21.10;52.10
43884;DHT22;71973;52.018;5.810;2024-02-04T00:25:56;21.10;52.10
43884;DHT22;71973;52.018;5.810;2024-02-04T00:28:22;21.00;52.20
43884;DHT22;71973;52.018;5.810;2024-02-04T00:30:47;21.00;52.30
43884;DHT22;71973;52.018;5.810;2024-02-04T00:33:15;20.90;52.30
43884;DHT22;71973;52.018;5.810;2024-02-04T00:35:41;20.90;52.40
43884;DHT22;71973;52.018;5.810;2024-02-04T00:38:07;20.80;52.40
43884;DHT22;71973;52.018;5.810;2024-02-04T00:40:33;20.80;52.60
43884;DHT22;71973;52.018;5.810;2024-02-04T00:42:59;20.80;52.70
43884;DHT22;71973;52.018;5.810;2024-02-04T00:45:25;20.70;52.70
43884;DHT22;71973;52.018;5.810;2024-02-04T00:47:51;20.60;52.70
43884;DHT22;71973;52.018;5.810;2024-02-04T00:50:16;20.60;52.80
43884;DHT22;71973;52.018;5.810;2024-02-04T00:52:41;20.60;52.90
43884;DHT22;71973;52.018;5.810;2024-02-04T00:55:07;20.50;52.90
43884;DHT22;71973;52.018;5.810;2024-02-04T00:57:33;20.50;53.00
43884;DHT22;71973;52.018;5.810;2024-02-04T00:59:58;20.40;53.00
43884;DHT22;71973;52.018;5.810;2024-02-04T01:02:24;20.40;53.10
43884;DHT22;71973;52.018;5.810;2024-02-04T01:04:49;20.40;53.20
43884;DHT22;71973;52.018;5.810;2024-02-04T01:07:15;20.30;53.20
43884;DHT22;71973;52.018;5.810;2024-02-04T01:09:41;20.30;53.30
43884;DHT22;71973;52.018;5.810;2024-02-04T01:12:07;20.30;53.40
43884;DHT22;71973;52.018;5.810;2024-02-04T01:14:33;20.30;53.40
43884;DHT22;71973;52.018;5.810;2024-02-04T01:16:58;20.20;53.50
43884;DHT22;71973;52.018;5.810;2024-02-04T01:19:24;20.20;53.60
43884;DHT22;71973;52.018;5.810;2024-02-04T01:21:49;20.20;53.60
43884;DHT22;71973;52.018;5.810;2024-02-04T01:24:15;20.10;53.60
43884;DHT22;71973;52.018;5.810;2024-02-04T01:26:40;20.10;53.70
43884;DHT22;71973;52.018;5.810;2024-02-04T01:29:06;20.10;53.70
43884;DHT22;71973;52.018;5.810;2024-02-04T01:31:31;20.00;53.80
43884;DHT22;71973;52.018;5.810;2024-02-04T01:33:57;20.00;53.90
43884;DHT22;71973;52.018;5.810;2024-02-04T01:36:22;20.00;53.90
43884;DHT22;71973;52.018;5.810;2024-02-04T01:38:48;20.00;54.00
43884;DHT22;71973;52.018;5.810;2024-02-04T01:41:13;19.90;54.00
43884;DHT22;71973;52.018;5.810;2024-02-04T01:43:39;19.90;54.10
43884;DHT22;71973;52.018;5.810;2024-02-04T01:46:04;19.80;54.00
43884;DHT22;71973;52.018;5.810;2024-02-04T01:48:30;19.80;54.10
43884;DHT22;71973;52.018;5.810;2024-02-04T01:50:55;19.80;54.10
43884;DHT22;71973;52.018;5.810;2024-02-04T01:53:22;19.80;54.20
43884;DHT22;71973;52.018;5.810;2024-02-04T01:55:48;19.70;54.20
43884;DHT22;71973;52.018;5.810;2024-02-04T01:58:14;19.70;54.30
43884;DHT22;71973;52.018;5.810;2024-02-04T02:00:40;19.70;54.30
43884;DHT22;71973;52.018;5.810;2024-02-04T02:03:06;19.60;54.30
43884;DHT22;71973;52.018;5.810;2024-02-04T02:05:32;19.60;54.40
43884;DHT22;71973;52.018;5.810;2024-02-04T02:07:58;19.60;54.50
43884;DHT22;71973;52.018;5.810;2024-02-04T02:10:23;19.60;54.50
43884;DHT22;71973;52.018;5.810;2024-02-04T02:15:18;19.50;54.60
43884;DHT22;71973;52.018;5.810;2024-02-04T02:17:51;19.50;54.60
43884;DHT22;71973;52.018;5.810;2024-02-04T02:20:22;19.50;54.70
43884;DHT22;71973;52.018;5.810;2024-02-04T02:22:49;19.50;54.70
43884;DHT22;71973;52.018;5.810;2024-02-04T02:25:16;19.40;54.70
43884;DHT22;71973;52.018;5.810;2024-02-04T02:27:48;19.40;54.80
43884;DHT22;71973;52.018;5.810;2024-02-04T02:30:14;19.40;54.80
43884;DHT22;71973;52.018;5.810;2024-02-04T02:32:42;19.40;54.90
43884;DHT22;71973;52.018;5.810;2024-02-04T02:35:07;19.40;54.90
43884;DHT22;71973;52.018;5.810;2024-02-04T02:37:34;19.30;54.90
43884;DHT22;71973;52.018;5.810;2024-02-04T02:40:04;19.30;54.90
43884;DHT22;71973;52.018;5.810;2024-02-04T02:42:31;19.30;55.00
43884;DHT22;71973;52.018;5.810;2024-02-04T02:44:57;19.30;55.00
43884;DHT22;71973;52.018;5.810;2024-02-04T02:47:24;19.20;55.00
43884;DHT22;71973;52.018;5.810;2024-02-04T02:49:53;19.20;55.10
43884;DHT22;71973;52.018;5.810;2024-02-04T02:52:21;19.20;55.10
43884;DHT22;71973;52.018;5.810;2024-02-04T02:54:46;19.20;55.20
43884;DHT22;71973;52.018;5.810;2024-02-04T02:57:12;19.20;55.20
43884;DHT22;71973;52.018;5.810;2024-02-04T02:59:37;19.20;55.30
43884;DHT22;71973;52.018;5.810;2024-02-04T03:02:03;19.20;55.30
43884;DHT22;71973;52.018;5.810;2024-02-04T03:04:29;19.10;55.30
43884;DHT22;71973;52.018;5.810;2024-02-04T03:06:54;19.10;55.30
43884;DHT22;71973;52.018;5.810;2024-02-04T03:09:19;19.10;55.30
43884;DHT22;71973;52.018;5.810;2024-02-04T03:11:45;19.00;55.30
43884;DHT22;71973;52.018;5.810;2024-02-04T03:14:11;19.00;55.30
43884;DHT22;71973;52.018;5.810;2024-02-04T03:16:37;19.00;55.30
43884;DHT22;71973;52.018;5.810;2024-02-04T03:19:04;19.00;55.30
43884;DHT22;71973;52.018;5.810;2024-02-04T03:21:30;19.00;55.50
43884;DHT22;71973;52.018;5.810;2024-02-04T03:23:55;19.00;55.50
43884;DHT22;71973;52.018;5.810;2024-02-04T03:26:21;19.00;55.50
43884;DHT22;71973;52.018;5.810;2024-02-04T03:28:46;18.90;55.50
43884;DHT22;71973;52.018;5.810;2024-02-04T03:31:12;18.90;55.50
43884;DHT22;71973;52.018;5.810;2024-02-04T03:33:37;18.90;55.50
43884;DHT22;71973;52.018;5.810;2024-02-04T03:36:03;18.90;55.60
43884;DHT22;71973;52.018;5.810;2024-02-04T03:38:28;18.90;55.60
43884;DHT22;71973;52.018;5.810;2024-02-04T03:40:54;18.90;55.60
43884;DHT22;71973;52.018;5.810;2024-02-04T03:43:19;18.90;55.70
43884;DHT22;71973;52.018;5.810;2024-02-04T03:45:45;18.90;55.70
43884;DHT22;71973;52.018;5.810;2024-02-04T03:48:10;18.80;55.70
43884;DHT22;71973;52.018;5.810;2024-02-04T03:50:36;18.80;55.70
43884;DHT22;71973;52.018;5.810;2024-02-04T03:53:01;18.80;55.80
43884;DHT22;71973;52.018;5.810;2024-02-04T03:55:27;18.80;56.40
43884;DHT22;71973;52.018;5.810;2024-02-04T03:57:54;18.70;55.80
43884;DHT22;71973;52.018;5.810;2024-02-04T04:00:19;18.70;55.80
43884;DHT22;71973;52.018;5.810;2024-02-04T04:02:45;18.70;55.80
43884;DHT22;71973;52.018;5.810;2024-02-04T04:05:10;18.70;55.80
43884;DHT22;71973;52.018;5.810;2024-02-04T04:07:38;18.70;55.90
43884;DHT22;71973;52.018;5.810;2024-02-04T04:10:04;18.70;56.20
43884;DHT22;71973;52.018;5.810;2024-02-04T04:12:29;18.70;55.90
43884;DHT22;71973;52.018;5.810;2024-02-04T04:14:55;18.60;55.90
43884;DHT22;71973;52.018;5.810;2024-02-04T04:17:20;18.60;55.90
43884;DHT22;71973;52.018;5.810;2024-02-04T04:19:46;18.60;55.90
43884;DHT22;71973;52.018;5.810;2024-02-04T04:22:11;18.60;56.00
43884;DHT22;71973;52.018;5.810;2024-02-04T04:24:37;18.60;55.90
43884;DHT22;71973;52.018;5.810;2024-02-04T04:27:03;18.60;56.00
43884;DHT22;71973;52.018;5.810;2024-02-04T04:29:28;18.50;56.00
43884;DHT22;71973;52.018;5.810;2024-02-04T04:31:54;18.50;56.00
43884;DHT22;71973;52.018;5.810;2024-02-04T04:34:19;18.50;56.00
43884;DHT22;71973;52.018;5.810;2024-02-04T04:36:45;18.50;56.10
43884;DHT22;71973;52.018;5.810;2024-02-04T04:39:11;18.50;56.10
43884;DHT22;71973;52.018;5.810;2024-02-04T04:41:36;18.50;56.70
43884;DHT22;71973;52.018;5.810;2024-02-04T04:44:02;18.50;56.10
43884;DHT22;71973;52.018;5.810;2024-02-04T04:46:28;18.50;56.20
43884;DHT22;71973;52.018;5.810;2024-02-04T04:48:53;18.40;56.20
43884;DHT22;71973;52.018;5.810;2024-02-04T04:51:23;18.50;56.20
43884;DHT22;71973;52.018;5.810;2024-02-04T04:53:48;18.40;56.20
43884;DHT22;71973;52.018;5.810;2024-02-04T04:56:14;18.40;56.20
43884;DHT22;71973;52.018;5.810;2024-02-04T04:58:39;18.40;56.20
43884;DHT22;71973;52.018;5.810;2024-02-04T05:01:05;18.40;56.30
43884;DHT22;71973;52.018;5.810;2024-02-04T05:03:31;18.40;56.20
43884;DHT22;71973;52.018;5.810;2024-02-04T05:05:56;18.40;56.30
43884;DHT22;71973;52.018;5.810;2024-02-04T05:08:22;18.40;56.30
43884;DHT22;71973;52.018;5.810;2024-02-04T05:10:47;18.30;56.20
43884;DHT22;71973;52.018;5.810;2024-02-04T05:13:13;18.30;56.30
43884;DHT22;71973;52.018;5.810;2024-02-04T05:15:38;18.30;56.40
43884;DHT22;71973;52.018;5.810;2024-02-04T05:18:04;18.30;56.40
43884;DHT22;71973;52.018;5.810;2024-02-04T05:20:29;18.30;56.40
43884;DHT22;71973;52.018;5.810;2024-02-04T05:22:55;18.30;56.40
43884;DHT22;71973;52.018;5.810;2024-02-04T05:25:22;18.30;56.40
43884;DHT22;71973;52.018;5.810;2024-02-04T05:27:47;18.30;56.40
43884;DHT22;71973;52.018;5.810;2024-02-04T05:30:13;18.30;56.50
43884;DHT22;71973;52.018;5.810;2024-02-04T05:32:39;18.30;56.40
43884;DHT22;71973;52.018;5.810;2024-02-04T05:35:04;18.20;56.40
43884;DHT22;71973;52.018;5.810;2024-02-04T05:37:30;18.20;56.40
43884;DHT22;71973;52.018;5.810;2024-02-04T05:39:55;18.20;56.40
43884;DHT22;71973;52.018;5.810;2024-02-04T05:42:21;18.20;56.50
43884;DHT22;71973;52.018;5.810;2024-02-04T05:44:46;18.20;56.50
43884;DHT22;71973;52.018;5.810;2024-02-04T05:47:12;18.10;56.40
43884;DHT22;71973;52.018;5.810;2024-02-04T05:49:37;18.20;56.60
43884;DHT22;71973;52.018;5.810;2024-02-04T05:52:03;18.10;56.50
43884;DHT22;71973;52.018;5.810;2024-02-04T05:54:28;18.10;56.50
43884;DHT22;71973;52.018;5.810;2024-02-04T05:56:54;18.10;56.50
43884;DHT22;71973;52.018;5.810;2024-02-04T05:59:19;18.10;56.50
43884;DHT22;71973;52.018;5.810;2024-02-04T06:01:45;18.10;56.50
43884;DHT22;71973;52.018;5.810;2024-02-04T06:04:10;18.10;56.60
43884;DHT22;71973;52.018;5.810;2024-02-04T06:06:36;18.10;56.60
43884;DHT22;71973;52.018;5.810;2024-02-04T06:09:01;18.10;56.60
43884;DHT22;71973;52.018;5.810;2024-02-04T06:11:27;18.10;56.60
43884;DHT22;71973;52.018;5.810;2024-02-04T06:13:52;18.10;56.60
43884;DHT22;71973;52.018;5.810;2024-02-04T06:16:18;18.10;56.60
43884;DHT22;71973;52.018;5.810;2024-02-04T06:18:43;18.00;56.50
43884;DHT22;71973;52.018;5.810;2024-02-04T06:21:09;18.00;56.60
43884;DHT22;71973;52.018;5.810;2024-02-04T06:23:34;18.00;56.70
43884;DHT22;71973;52.018;5.810;2024-02-04T06:26:00;18.00;57.30
43884;DHT22;71973;52.018;5.810;2024-02-04T06:28:25;18.00;56.60
43884;DHT22;71973;52.018;5.810;2024-02-04T06:30:51;17.90;56.80
43884;DHT22;71973;52.018;5.810;2024-02-04T06:33:16;18.00;56.80
43884;DHT22;71973;52.018;5.810;2024-02-04T06:35:42;18.10;56.60
43884;DHT22;71973;52.018;5.810;2024-02-04T06:38:08;18.10;56.40
43884;DHT22;71973;52.018;5.810;2024-02-04T06:40:33;18.20;56.30
43884;DHT22;71973;52.018;5.810;2024-02-04T06:42:59;18.20;56.30
43884;DHT22;71973;52.018;5.810;2024-02-04T06:45:24;18.20;56.20
43884;DHT22;71973;52.018;5.810;2024-02-04T06:47:50;18.20;56.20
43884;DHT22;71973;52.018;5.810;2024-02-04T06:50:15;18.20;56.20
43884;DHT22;71973;52.018;5.810;2024-02-04T06:52:41;18.20;56.30
43884;DHT22;71973;52.018;5.810;2024-02-04T06:55:07;18.10;56.20
43884;DHT22;71973;52.018;5.810;2024-02-04T06:57:33;18.10;56.30
43884;DHT22;71973;52.018;5.810;2024-02-04T06:59:59;18.10;56.30
43884;DHT22;71973;52.018;5.810;2024-02-04T07:02:24;18.10;56.30
43884;DHT22;71973;52.018;5.810;2024-02-04T07:04:50;18.10;56.30
43884;DHT22;71973;52.018;5.810;2024-02-04T07:07:15;18.10;56.40
43884;DHT22;71973;52.018;5.810;2024-02-04T07:09:41;18.10;56.40
43884;DHT22;71973;52.018;5.810;2024-02-04T07:12:06;18.10;57.00
43884;DHT22;71973;52.018;5.810;2024-02-04T07:14:32;18.00;56.50
43884;DHT22;71973;52.018;5.810;2024-02-04T07:16:57;18.00;56.60
43884;DHT22;71973;52.018;5.810;2024-02-04T07:19:22;18.00;56.70
43884;DHT22;71973;52.018;5.810;2024-02-04T07:21:48;17.90;56.80
43884;DHT22;71973;52.018;5.810;2024-02-04T07:24:14;17.90;56.90
43884;DHT22;71973;52.018;5.810;2024-02-04T07:26:39;17.90;56.90
43884;DHT22;71973;52.018;5.810;2024-02-04T07:29:05;17.90;56.90
43884;DHT22;71973;52.018;5.810;2024-02-04T07:31:30;18.10;56.50
43884;DHT22;71973;52.018;5.810;2024-02-04T07:33:55;18.10;56.40
43884;DHT22;71973;52.018;5.810;2024-02-04T07:36:23;18.20;56.40
43884;DHT22;71973;52.018;5.810;2024-02-04T07:38:48;18.10;56.40
43884;DHT22;71973;52.018;5.810;2024-02-04T07:41:14;18.10;56.40
43884;DHT22;71973;52.018;5.810;2024-02-04T07:43:40;18.10;56.50
43884;DHT22;71973;52.018;5.810;2024-02-04T07:46:07;18.10;56.50
43884;DHT22;71973;52.018;5.810;2024-02-04T07:48:33;18.10;56.60
43884;DHT22;71973;52.018;5.810;2024-02-04T07:50:59;18.10;56.60
43884;DHT22;71973;52.018;5.810;2024-02-04T07:53:24;18.10;56.70
43884;DHT22;71973;52.018;5.810;2024-02-04T07:55:50;18.10;56.50
43884;DHT22;71973;52.018;5.810;2024-02-04T07:58:16;18.20;56.50
43884;DHT22;71973;52.018;5.810;2024-02-04T08:00:41;18.20;56.40
43884;DHT22;71973;52.018;5.810;2024-02-04T08:03:07;18.20;56.30
43884;DHT22;71973;52.018;5.810;2024-02-04T08:05:32;18.30;56.10
43884;DHT22;71973;52.018;5.810;2024-02-04T08:08:00;18.30;56.20
43884;DHT22;71973;52.018;5.810;2024-02-04T08:10:25;18.30;56.10
43884;DHT22;71973;52.018;5.810;2024-02-04T08:12:51;18.30;56.10
43884;DHT22;71973;52.018;5.810;2024-02-04T08:15:18;18.30;56.10
43884;DHT22;71973;52.018;5.810;2024-02-04T08:17:43;18.30;56.10
43884;DHT22;71973;52.018;5.810;2024-02-04T08:20:09;18.20;56.00
43884;DHT22;71973;52.018;5.810;2024-02-04T08:22:35;18.20;56.10
43884;DHT22;71973;52.018;5.810;2024-02-04T08:25:00;18.20;56.20
43884;DHT22;71973;52.018;5.810;2024-02-04T08:27:27;18.10;56.20
43884;DHT22;71973;52.018;5.810;2024-02-04T08:29:52;18.10;56.40
43884;DHT22;71973;52.018;5.810;2024-02-04T08:32:18;18.10;57.00
43884;DHT22;71973;52.018;5.810;2024-02-04T08:34:43;18.10;56.80
43884;DHT22;71973;52.018;5.810;2024-02-04T08:37:09;18.00;57.40
43884;DHT22;71973;52.018;5.810;2024-02-04T08:39:34;18.20;57.90
43884;DHT22;71973;52.018;5.810;2024-02-04T08:42:00;18.10;57.60
43884;DHT22;71973;52.018;5.810;2024-02-04T08:44:25;18.00;57.90
43884;DHT22;71973;52.018;5.810;2024-02-04T08:46:50;18.00;58.90
43884;DHT22;71973;52.018;5.810;2024-02-04T08:49:16;17.90;59.20
43884;DHT22;71973;52.018;5.810;2024-02-04T08:51:41;18.00;59.00
43884;DHT22;71973;52.018;5.810;2024-02-04T08:54:07;17.90;58.90
43884;DHT22;71973;52.018;5.810;2024-02-04T08:56:33;17.90;59.70
43884;DHT22;71973;52.018;5.810;2024-02-04T08:58:58;17.90;59.30
43884;DHT22;71973;52.018;5.810;2024-02-04T09:01:25;17.90;59.40
43884;DHT22;71973;52.018;5.810;2024-02-04T09:03:50;17.80;59.50
43884;DHT22;71973;52.018;5.810;2024-02-04T09:06:16;17.90;59.70
43884;DHT22;71973;52.018;5.810;2024-02-04T09:08:41;17.80;59.40
43884;DHT22;71973;52.018;5.810;2024-02-04T09:11:07;17.80;59.60
43884;DHT22;71973;52.018;5.810;2024-02-04T09:13:32;17.80;59.60
43884;DHT22;71973;52.018;5.810;2024-02-04T09:15:57;17.80;59.60
43884;DHT22;71973;52.018;5.810;2024-02-04T09:18:23;17.70;59.60
43884;DHT22;71973;52.018;5.810;2024-02-04T09:20:48;17.80;59.70
43884;DHT22;71973;52.018;5.810;2024-02-04T09:23:14;17.80;59.80
43884;DHT22;71973;52.018;5.810;2024-02-04T09:25:39;17.70;59.70
43884;DHT22;71973;52.018;5.810;2024-02-04T09:28:05;17.90;60.20
43884;DHT22;71973;52.018;5.810;2024-02-04T09:30:30;17.80;59.90
43884;DHT22;71973;52.018;5.810;2024-02-04T09:32:56;17.80;60.30
43884;DHT22;71973;52.018;5.810;2024-02-04T09:35:22;17.80;59.80
43884;DHT22;71973;52.018;5.810;2024-02-04T09:37:47;17.80;60.00
43884;DHT22;71973;52.018;5.810;2024-02-04T09:40:12;18.00;61.90
43884;DHT22;71973;52.018;5.810;2024-02-04T09:42:38;18.10;61.30
43884;DHT22;71973;52.018;5.810;2024-02-04T09:45:04;18.10;60.90
43884;DHT22;71973;52.018;5.810;2024-02-04T09:47:30;18.10;60.90
43884;DHT22;71973;52.018;5.810;2024-02-04T09:49:56;18.10;60.90
43884;DHT22;71973;52.018;5.810;2024-02-04T09:52:24;18.00;61.00
43884;DHT22;71973;52.018;5.810;2024-02-04T09:54:54;18.00;61.50
43884;DHT22;71973;52.018;5.810;2024-02-04T09:57:22;18.00;61.60
43884;DHT22;71973;52.018;5.810;2024-02-04T09:59:47;18.00;61.90
43884;DHT22;71973;52.018;5.810;2024-02-04T10:02:13;18.00;62.40
43884;DHT22;71973;52.018;5.810;2024-02-04T10:04:38;18.10;62.40
43884;DHT22;71973;52.018;5.810;2024-02-04T10:07:04;18.10;62.80
43884;DHT22;71973;52.018;5.810;2024-02-04T10:09:29;18.10;62.50
43884;DHT22;71973;52.018;5.810;2024-02-04T10:11:56;18.10;62.10
43884;DHT22;71973;52.018;5.810;2024-02-04T10:14:21;18.10;62.70
43884;DHT22;71973;52.018;5.810;2024-02-04T10:16:47;18.00;62.90
43884;DHT22;71973;52.018;5.810;2024-02-04T10:19:12;18.00;62.60
43884;DHT22;71973;52.018;5.810;2024-02-04T10:21:38;17.90;62.10
43884;DHT22;71973;52.018;5.810;2024-02-04T10:24:05;17.90;61.90
43884;DHT22;71973;52.018;5.810;2024-02-04T10:26:31;17.80;61.70
43884;DHT22;71973;52.018;5.810;2024-02-04T10:28:57;17.80;61.60
43884;DHT22;71973;52.018;5.810;2024-02-04T10:31:22;18.00;61.80
43884;DHT22;71973;52.018;5.810;2024-02-04T10:33:48;18.20;61.00
43884;DHT22;71973;52.018;5.810;2024-02-04T10:36:15;18.30;60.10
43884;DHT22;71973;52.018;5.810;2024-02-04T10:38:40;18.40;60.10
43884;DHT22;71973;52.018;5.810;2024-02-04T10:41:06;18.70;59.70
43884;DHT22;71973;52.018;5.810;2024-02-04T10:43:32;18.80;59.00
43884;DHT22;71973;52.018;5.810;2024-02-04T10:46:01;18.50;59.70
43884;DHT22;71973;52.018;5.810;2024-02-04T10:48:26;18.40;60.30
43884;DHT22;71973;52.018;5.810;2024-02-04T10:50:53;18.30;60.60
43884;DHT22;71973;52.018;5.810;2024-02-04T10:53:20;18.20;60.90
43884;DHT22;71973;52.018;5.810;2024-02-04T10:55:46;18.20;60.90
43884;DHT22;71973;52.018;5.810;2024-02-04T10:58:12;18.20;60.90
43884;DHT22;71973;52.018;5.810;2024-02-04T11:00:38;18.10;61.00
43884;DHT22;71973;52.018;5.810;2024-02-04T11:03:04;18.10;61.00
43884;DHT22;71973;52.018;5.810;2024-02-04T11:05:30;18.10;61.10
43884;DHT22;71973;52.018;5.810;2024-02-04T11:07:57;18.00;61.10
43884;DHT22;71973;52.018;5.810;2024-02-04T11:10:22;17.90;61.10
43884;DHT22;71973;52.018;5.810;2024-02-04T11:12:49;17.90;61.20
43884;DHT22;71973;52.018;5.810;2024-02-04T11:15:15;17.80;61.20
43884;DHT22;71973;52.018;5.810;2024-02-04T11:28:03;17.70;61.50
43884;DHT22;71973;52.018;5.810;2024-02-04T11:30:32;17.60;61.40
43884;DHT22;71973;52.018;5.810;2024-02-04T11:33:00;17.70;62.10
43884;DHT22;71973;52.018;5.810;2024-02-04T11:35:25;17.70;62.00
43884;DHT22;71973;52.018;5.810;2024-02-04T11:37:53;17.80;62.10
43884;DHT22;71973;52.018;5.810;2024-02-04T11:40:18;17.70;61.90
43884;DHT22;71973;52.018;5.810;2024-02-04T11:42:46;17.80;62.10
43884;DHT22;71973;52.018;5.810;2024-02-04T11:45:12;17.80;62.20
43884;DHT22;71973;52.018;5.810;2024-02-04T11:47:38;17.80;62.20
43884;DHT22;71973;52.018;5.810;2024-02-04T11:50:04;17.80;62.20
43884;DHT22;71973;52.018;5.810;2024-02-04T11:52:29;17.80;62.10
43884;DHT22;71973;52.018;5.810;2024-02-04T11:54:55;17.70;61.80
43884;DHT22;71973;52.018;5.810;2024-02-04T11:57:21;17.70;61.70
43884;DHT22;71973;52.018;5.810;2024-02-04T11:59:47;17.60;61.70
43884;DHT22;71973;52.018;5.810;2024-02-04T12:02:15;17.70;61.60
43884;DHT22;71973;52.018;5.810;2024-02-04T12:04:41;17.60;61.40
43884;DHT22;71973;52.018;5.810;2024-02-04T12:07:07;17.70;61.60
43884;DHT22;71973;52.018;5.810;2024-02-04T12:09:34;17.60;61.40
43884;DHT22;71973;52.018;5.810;2024-02-04T12:11:59;17.60;61.30
43884;DHT22;71973;52.018;5.810;2024-02-04T12:14:25;17.60;61.40
43884;DHT22;71973;52.018;5.810;2024-02-04T12:16:51;17.60;61.40
43884;DHT22;71973;52.018;5.810;2024-02-04T12:19:17;17.60;61.40
43884;DHT22;71973;52.018;5.810;2024-02-04T12:21:42;17.60;61.40
43884;DHT22;71973;52.018;5.810;2024-02-04T12:24:08;17.60;61.30
43884;DHT22;71973;52.018;5.810;2024-02-04T12:26:33;17.60;61.20
43884;DHT22;71973;52.018;5.810;2024-02-04T12:28:59;17.60;61.10
43884;DHT22;71973;52.018;5.810;2024-02-04T12:31:25;17.50;61.10
43884;DHT22;71973;52.018;5.810;2024-02-04T12:33:55;17.50;61.00
43884;DHT22;71973;52.018;5.810;2024-02-04T12:36:32;17.50;61.20
43884;DHT22;71973;52.018;5.810;2024-02-04T12:38:58;17.60;62.60
43884;DHT22;71973;52.018;5.810;2024-02-04T12:41:25;17.70;62.70
43884;DHT22;71973;52.018;5.810;2024-02-04T12:43:51;17.90;63.00
43884;DHT22;71973;52.018;5.810;2024-02-04T12:46:18;17.90;63.00
43884;DHT22;71973;52.018;5.810;2024-02-04T12:48:43;17.90;63.10
43884;DHT22;71973;52.018;5.810;2024-02-04T12:51:09;18.00;63.10
43884;DHT22;71973;52.018;5.810;2024-02-04T12:53:36;18.00;63.80
43884;DHT22;71973;52.018;5.810;2024-02-04T12:56:02;18.00;63.80
43884;DHT22;71973;52.018;5.810;2024-02-04T12:58:27;18.10;63.70
43884;DHT22;71973;52.018;5.810;2024-02-04T13:01:00;18.20;63.50
43884;DHT22;71973;52.018;5.810;2024-02-04T13:03:26;18.20;63.30
43884;DHT22;71973;52.018;5.810;2024-02-04T13:05:56;18.20;63.30
43884;DHT22;71973;52.018;5.810;2024-02-04T13:08:22;18.30;63.10
43884;DHT22;71973;52.018;5.810;2024-02-04T13:10:53;18.20;62.80
43884;DHT22;71973;52.018;5.810;2024-02-04T13:13:19;18.30;62.80
43884;DHT22;71973;52.018;5.810;2024-02-04T13:15:45;18.30;62.70
43884;DHT22;71973;52.018;5.810;2024-02-04T13:18:12;18.30;62.60
43884;DHT22;71973;52.018;5.810;2024-02-04T13:20:40;18.30;62.50
43884;DHT22;71973;52.018;5.810;2024-02-04T13:23:07;18.30;62.30
43884;DHT22;71973;52.018;5.810;2024-02-04T13:25:33;18.40;62.30
43884;DHT22;71973;52.018;5.810;2024-02-04T13:27:58;18.40;62.30
43884;DHT22;71973;52.018;5.810;2024-02-04T13:30:24;18.40;62.20
43884;DHT22;71973;52.018;5.810;2024-02-04T13:32:50;18.40;62.30
43884;DHT22;71973;52.018;5.810;2024-02-04T13:35:15;18.40;62.20
43884;DHT22;71973;52.018;5.810;2024-02-04T13:37:42;18.40;62.00
43884;DHT22;71973;52.018;5.810;2024-02-04T13:40:12;18.30;62.00
43884;DHT22;71973;52.018;5.810;2024-02-04T13:42:39;18.40;61.90
43884;DHT22;71973;52.018;5.810;2024-02-04T13:45:04;18.40;61.90
43884;DHT22;71973;52.018;5.810;2024-02-04T13:47:30;18.40;61.80
43884;DHT22;71973;52.018;5.810;2024-02-04T13:49:55;18.30;62.10
43884;DHT22;71973;52.018;5.810;2024-02-04T13:52:21;18.10;62.20
43884;DHT22;71973;52.018;5.810;2024-02-04T13:54:47;18.00;62.10
43884;DHT22;71973;52.018;5.810;2024-02-04T13:57:12;18.00;62.00
43884;DHT22;71973;52.018;5.810;2024-02-04T13:59:37;17.90;62.10
43884;DHT22;71973;52.018;5.810;2024-02-04T14:02:03;17.80;61.90
43884;DHT22;71973;52.018;5.810;2024-02-04T14:04:29;17.80;62.00
43884;DHT22;71973;52.018;5.810;2024-02-04T14:06:55;17.70;61.80
43884;DHT22;71973;52.018;5.810;2024-02-04T14:09:20;17.60;61.80
43884;DHT22;71973;52.018;5.810;2024-02-04T14:11:46;17.60;61.80
43884;DHT22;71973;52.018;5.810;2024-02-04T14:14:11;17.60;61.70
43884;DHT22;71973;52.018;5.810;2024-02-04T14:16:38;17.60;61.70
43884;DHT22;71973;52.018;5.810;2024-02-04T14:19:04;17.60;61.60
43884;DHT22;71973;52.018;5.810;2024-02-04T14:21:29;17.60;62.00
43884;DHT22;71973;52.018;5.810;2024-02-04T14:23:55;17.60;61.60
43884;DHT22;71973;52.018;5.810;2024-02-04T14:26:21;17.50;61.50
43884;DHT22;71973;52.018;5.810;2024-02-04T14:28:46;17.50;61.40
43884;DHT22;71973;52.018;5.810;2024-02-04T14:31:12;17.50;61.40
43884;DHT22;71973;52.018;5.810;2024-02-04T14:33:37;17.50;61.40
43884;DHT22;71973;52.018;5.810;2024-02-04T14:36:03;17.50;61.40
43884;DHT22;71973;52.018;5.810;2024-02-04T14:38:29;17.50;61.40
43884;DHT22;71973;52.018;5.810;2024-02-04T14:40:57;17.40;61.30
43884;DHT22;71973;52.018;5.810;2024-02-04T14:43:23;17.40;61.20
43884;DHT22;71973;52.018;5.810;2024-02-04T14:45:49;17.40;61.20
43884;DHT22;71973;52.018;5.810;2024-02-04T14:48:14;17.40;61.10
43884;DHT22;71973;52.018;5.810;2024-02-04T14:50:39;17.40;61.10
43884;DHT22;71973;52.018;5.810;2024-02-04T14:53:05;17.40;61.10
43884;DHT22;71973;52.018;5.810;2024-02-04T14:55:32;17.30;61.10
43884;DHT22;71973;52.018;5.810;2024-02-04T14:57:57;17.30;61.00
43884;DHT22;71973;52.018;5.810;2024-02-04T15:00:23;17.30;61.10
43884;DHT22;71973;52.018;5.810;2024-02-04T15:02:50;17.30;61.00
43884;DHT22;71973;52.018;5.810;2024-02-04T15:05:16;17.30;61.30
43884;DHT22;71973;52.018;5.810;2024-02-04T15:07:42;17.40;61.20
43884;DHT22;71973;52.018;5.810;2024-02-04T15:10:08;17.30;61.00
43884;DHT22;71973;52.018;5.810;2024-02-04T15:12:35;17.40;61.10
43884;DHT22;71973;52.018;5.810;2024-02-04T15:15:01;17.30;61.00
43884;DHT22;71973;52.018;5.810;2024-02-04T15:17:27;17.30;61.00
43884;DHT22;71973;52.018;5.810;2024-02-04T15:19:52;17.30;61.10
43884;DHT22;71973;52.018;5.810;2024-02-04T15:22:18;17.30;61.10
43884;DHT22;71973;52.018;5.810;2024-02-04T15:24:43;17.30;61.10
43884;DHT22;71973;52.018;5.810;2024-02-04T15:27:09;17.20;61.10
43884;DHT22;71973;52.018;5.810;2024-02-04T15:29:36;17.20;61.00
43884;DHT22;71973;52.018;5.810;2024-02-04T15:32:01;17.20;61.00
43884;DHT22;71973;52.018;5.810;2024-02-04T15:34:27;17.20;61.00